Time;durP1;ratioP1;P1;durP2;ratioP2;P2;SDS_P1;SDS_P2;PMS_P1;PMS_P2;Temp;Humidity;BMP_temperature;BMP_pressure;BME280_temperature;BME280_humidity;BME280_pressure;Samples;Min_cycle;Max_cycle;Signal;HPM_P1;HPM_P2
2022/06/20 00:03:43;;;;;;;2.13;0.60;;;18.30;78.80;;;;;;10506697;28;20119;-58
2022/06/20 00:08:44;;;;;;;1.80;0.88;;;18.30;78.80;;;;;;10508284;28;20485;-59
2022/06/20 00:13:47;;;;;;;1.88;0.60;;;18.30;78.80;;;;;;10506477;28;20044;-59
2022/06/20 00:18:49;;;;;;;1.50;0.60;;;18.30;78.90;;;;;;10509811;28;20047;-59
2022/06/20 00:23:50;;;;;;;2.80;0.93;;;18.30;78.90;;;;;;10510721;28;20120;-57
2022/06/20 00:28:51;;;;;;;1.10;0.75;;;18.30;79.60;;;;;;10510541;28;20048;-57
2022/06/20 00:33:52;;;;;;;2.20;0.80;;;18.30;79.00;;;;;;10502407;28;20576;-57
2022/06/20 00:38:55;;;;;;;4.53;0.73;;;18.20;79.00;;;;;;10504930;28;20035;-60
2022/06/20 00:43:56;;;;;;;2.17;0.63;;;18.20;79.00;;;;;;10511711;28;20047;-58
2022/06/20 00:49:06;;;;;;;2.92;0.60;;;18.20;79.10;;;;;;10510326;28;20032;-57
2022/06/20 00:54:19;;;;;;;1.00;0.65;;;18.20;79.00;;;;;;10506670;28;20036;-58
2022/06/20 00:59:30;;;;;;;1.58;0.60;;;18.20;79.10;;;;;;10507565;28;20031;-58
2022/06/20 01:04:44;;;;;;;3.13;0.85;;;18.20;79.10;;;;;;10510509;28;20473;-57
2022/06/20 01:09:48;;;;;;;2.17;0.65;;;18.20;79.10;;;;;;10504680;28;20028;-60
2022/06/20 01:14:49;;;;;;;2.80;0.70;;;18.20;79.10;;;;;;10503790;28;20052;-58
2022/06/20 01:19:58;;;;;;;1.38;0.80;;;18.10;79.10;;;;;;10506293;28;20056;-60
2022/06/20 01:25:44;;;;;;;2.15;0.65;;;18.10;79.20;;;;;;10505227;28;20024;-58
2022/06/20 01:30:46;;;;;;;4.35;0.90;;;18.10;79.30;;;;;;10507807;28;20089;-59
2022/06/20 01:46:30;;;;;;;5.13;0.90;;;18.10;79.40;;;;;;10507290;28;22143;-60
2022/06/20 01:51:41;;;;;;;1.30;0.50;;;18.10;79.40;;;;;;10504659;28;20166;-60
2022/06/20 01:56:43;;;;;;;1.92;1.00;;;18.00;79.40;;;;;;10509180;28;20050;-59
2022/06/20 02:01:44;;;;;;;1.40;0.80;;;18.00;79.40;;;;;;10511841;28;20028;-57
2022/06/20 02:06:47;;;;;;;3.25;1.00;;;18.00;79.50;;;;;;10504799;28;20425;-59
2022/06/20 02:11:49;;;;;;;3.78;0.95;;;18.00;79.60;;;;;;10507389;28;20028;-60
2022/06/20 02:16:55;;;;;;;1.77;0.63;;;18.00;79.60;;;;;;10501282;28;20178;-57
2022/06/20 02:22:02;;;;;;;3.35;1.00;;;18.00;79.60;;;;;;10501818;28;20501;-59
2022/06/20 02:27:05;;;;;;;1.98;0.63;;;18.00;79.70;;;;;;10504140;28;20113;-59
2022/06/20 02:32:11;;;;;;;2.53;0.85;;;18.00;79.70;;;;;;10509102;28;20512;-58
2022/06/20 02:37:23;;;;;;;1.40;0.75;;;17.90;79.70;;;;;;10505048;28;20187;-58
2022/06/20 02:42:40;;;;;;;2.80;1.13;;;17.90;79.80;;;;;;10512852;28;20028;-58
2022/06/20 02:47:47;;;;;;;4.85;0.90;;;17.90;79.80;;;;;;10514340;28;20070;-58
2022/06/20 02:52:57;;;;;;;3.13;0.82;;;17.90;79.80;;;;;;10516550;28;20539;-58
2022/06/20 02:58:03;;;;;;;1.58;0.68;;;17.80;79.80;;;;;;10510925;28;20047;-57
2022/06/20 03:03:09;;;;;;;1.42;0.80;;;17.80;79.80;;;;;;10513251;28;20385;-59
2022/06/20 03:08:14;;;;;;;2.25;0.80;;;17.80;79.80;;;;;;10509752;28;20502;-60
2022/06/20 03:13:16;;;;;;;2.28;0.90;;;17.80;79.90;;;;;;10511900;28;20033;-58
2022/06/20 03:18:19;;;;;;;1.17;0.73;;;17.80;79.90;;;;;;10510580;28;20089;-58
2022/06/20 03:23:32;;;;;;;3.05;0.90;;;17.70;79.80;;;;;;10515910;28;20408;-58
2022/06/20 03:28:33;;;;;;;2.30;0.63;;;17.70;79.90;;;;;;10510967;28;20025;-59
2022/06/20 03:33:34;;;;;;;2.13;0.63;;;17.70;79.80;;;;;;10513967;28;20063;-60
2022/06/20 03:38:36;;;;;;;1.35;0.73;;;17.70;79.90;;;;;;10482221;28;20043;-59
2022/06/20 03:43:40;;;;;;;1.52;0.73;;;17.60;79.80;;;;;;10421655;28;20904;-58
2022/06/20 03:48:53;;;;;;;2.78;0.80;;;17.60;79.80;;;;;;10420613;28;20043;-59
2022/06/20 03:54:07;;;;;;;1.10;0.68;;;17.60;79.80;;;;;;10417013;28;20329;-58
2022/06/20 03:59:41;;;;;;;1.02;0.77;;;17.60;79.80;;;;;;10421896;28;20040;-57
2022/06/20 04:05:15;;;;;;;1.45;0.88;;;17.60;79.70;;;;;;10402684;28;20031;-57
2022/06/20 04:15:48;;;;;;;2.35;1.15;;;17.60;79.80;;;;;;10419888;28;20109;-58
2022/06/20 04:20:58;;;;;;;2.60;0.85;;;17.60;79.80;;;;;;10423329;28;20091;-57
2022/06/20 04:26:01;;;;;;;1.45;0.80;;;17.60;79.70;;;;;;10417117;28;21058;-57
2022/06/20 04:31:29;;;;;;;2.40;0.63;;;17.60;79.60;;;;;;10417026;28;20632;-57
2022/06/20 04:36:56;;;;;;;1.30;0.73;;;17.60;79.60;;;;;;10419992;28;21121;-57
2022/06/20 04:42:06;;;;;;;1.05;0.88;;;17.60;79.60;;;;;;10414943;28;20147;-57
2022/06/20 04:47:28;;;;;;;1.65;0.82;;;17.60;79.60;;;;;;10418295;28;20035;-57
2022/06/20 04:52:30;;;;;;;1.13;0.70;;;17.50;79.60;;;;;;10414765;28;20046;-57
2022/06/20 04:57:33;;;;;;;1.77;0.90;;;17.50;79.60;;;;;;10415249;28;20137;-57
2022/06/20 05:02:35;;;;;;;1.42;0.80;;;17.50;79.60;;;;;;10414693;28;20591;-57
2022/06/20 05:07:36;;;;;;;3.28;0.80;;;17.50;79.60;;;;;;10411662;28;20025;-57
2022/06/20 05:12:48;;;;;;;1.83;0.88;;;17.50;79.60;;;;;;10416801;28;20275;-58
2022/06/20 05:17:50;;;;;;;2.33;0.90;;;17.50;79.60;;;;;;10416247;28;20036;-58
2022/06/20 05:23:00;;;;;;;1.30;0.90;;;17.50;79.60;;;;;;10417389;28;20560;-56
2022/06/20 05:28:23;;;;;;;2.15;0.77;;;17.50;79.70;;;;;;10417376;28;20062;-57
2022/06/20 05:33:29;;;;;;;3.55;1.00;;;17.50;79.60;;;;;;10419734;28;20043;-56
2022/06/20 05:38:34;;;;;;;2.13;0.70;;;17.50;79.60;;;;;;10418239;28;20040;-56
2022/06/20 05:43:36;;;;;;;1.08;0.77;;;17.40;79.60;;;;;;10415695;28;20020;-56
2022/06/20 05:48:46;;;;;;;2.90;0.70;;;17.60;79.60;;;;;;10416951;28;20059;-58
2022/06/20 05:54:09;;;;;;;4.45;1.20;;;17.50;79.60;;;;;;10415237;28;20021;-57
2022/06/20 05:59:36;;;;;;;2.78;1.17;;;17.50;79.60;;;;;;10419002;28;20044;-63
2022/06/20 06:04:44;;;;;;;8.45;1.70;;;17.50;79.90;;;;;;10381924;28;20782;-61
2022/06/20 06:09:58;;;;;;;7.03;1.80;;;17.20;80.50;;;;;;10417282;28;20046;-59
2022/06/20 06:15:05;;;;;;;9.35;2.67;;;17.10;81.10;;;;;;10418785;28;20163;-61
2022/06/20 06:20:14;;;;;;;7.30;1.85;;;16.80;81.30;;;;;;10424157;28;20074;-59
2022/06/20 06:25:23;;;;;;;6.68;2.33;;;16.60;81.50;;;;;;10423476;28;20042;-62
2022/06/20 06:30:40;;;;;;;3.55;1.88;;;16.50;82.00;;;;;;10427492;28;20021;-61
2022/06/20 06:35:45;;;;;;;8.50;2.10;;;16.50;82.10;;;;;;10422879;28;20064;-61
2022/06/20 06:40:52;;;;;;;9.27;2.50;;;16.50;82.10;;;;;;10426327;28;20067;-63
2022/06/20 06:45:57;;;;;;;9.85;3.40;;;16.60;82.40;;;;;;10421039;28;20029;-62
2022/06/20 06:51:09;;;;;;;9.52;2.30;;;16.70;82.10;;;;;;10417931;28;21936;-63
2022/06/20 06:56:34;;;;;;;6.97;2.25;;;16.70;82.30;;;;;;10492594;28;20029;-62
2022/06/20 07:01:41;;;;;;;7.82;2.65;;;16.80;82.10;;;;;;10511613;28;20552;-62
2022/06/20 07:06:50;;;;;;;8.43;2.67;;;16.70;82.00;;;;;;10509440;28;20027;-61
2022/06/20 07:12:07;;;;;;;6.10;2.40;;;16.70;81.80;;;;;;10435398;28;20051;-61
2022/06/20 07:17:30;;;;;;;4.32;2.10;;;16.60;82.20;;;;;;10416942;28;20056;-62
2022/06/20 07:22:31;;;;;;;6.57;2.00;;;16.60;82.40;;;;;;10416983;28;20135;-61
2022/06/20 07:27:39;;;;;;;9.90;2.10;;;16.60;82.40;;;;;;10423494;28;20032;-61
2022/06/20 07:32:49;;;;;;;5.28;1.90;;;16.80;82.30;;;;;;10421172;28;20144;-62
2022/06/20 07:37:56;;;;;;;3.90;1.77;;;16.90;81.90;;;;;;10416092;28;20145;-60
2022/06/20 07:43:08;;;;;;;7.27;2.00;;;17.10;81.40;;;;;;10421518;28;20026;-62
2022/06/20 07:48:30;;;;;;;4.30;1.75;;;17.00;81.00;;;;;;10422405;28;20584;-60
2022/06/20 07:53:51;;;;;;;4.50;1.90;;;17.30;80.90;;;;;;10424549;28;20031;-62
2022/06/20 07:58:57;;;;;;;6.13;1.77;;;17.40;80.90;;;;;;10415609;28;20041;-60
2022/06/20 08:04:06;;;;;;;5.90;1.90;;;17.50;80.50;;;;;;10424588;28;20026;-63
2022/06/20 08:09:33;;;;;;;5.20;1.90;;;17.60;80.30;;;;;;10415133;28;20054;-60
2022/06/20 08:14:50;;;;;;;5.20;1.88;;;17.70;80.10;;;;;;10405278;28;20044;-60
2022/06/20 08:19:51;;;;;;;3.78;1.55;;;17.70;79.90;;;;;;10424658;28;20031;-60
2022/06/20 08:25:15;;;;;;;5.38;2.40;;;17.70;79.70;;;;;;10415833;28;20293;-61
2022/06/20 08:30:24;;;;;;;3.38;1.70;;;17.80;79.70;;;;;;10418210;28;20623;-60
2022/06/20 08:35:30;;;;;;;6.57;1.58;;;17.60;79.50;;;;;;10417163;28;20429;-61
2022/06/20 08:41:01;;;;;;;2.92;1.30;;;17.90;79.40;;;;;;10425316;28;20111;-61
2022/06/20 08:46:47;;;;;;;4.38;1.60;;;17.90;79.30;;;;;;10417763;28;20040;-63
2022/06/20 08:52:06;;;;;;;3.42;1.48;;;18.00;78.70;;;;;;10419774;28;20020;-61
2022/06/20 08:57:30;;;;;;;3.50;1.10;;;18.00;78.70;;;;;;10418834;28;20113;-63
2022/06/20 09:02:46;;;;;;;3.63;1.40;;;18.10;78.20;;;;;;10416118;28;20036;-60
2022/06/20 09:08:34;;;;;;;3.80;1.45;;;18.20;78.40;;;;;;10417121;28;20244;-61
2022/06/20 09:13:42;;;;;;;;;;;18.20;78.00;;;;;;10310913;28;20224;-61
2022/06/20 09:18:52;;;;;;;1.80;1.08;;;18.10;77.80;;;;;;10400240;27;19928;-61
2022/06/20 09:24:18;;;;;;;4.40;1.50;;;18.20;78.20;;;;;;10414241;28;20032;-60
2022/06/20 09:29:36;;;;;;;2.75;1.33;;;18.20;78.00;;;;;;10419106;28;20024;-60
2022/06/20 09:35:10;;;;;;;2.63;1.20;;;18.20;77.60;;;;;;10414430;28;20189;-61
2022/06/20 09:40:19;;;;;;;2.08;1.25;;;18.50;77.30;;;;;;10419759;28;20060;-61
2022/06/20 09:45:40;;;;;;;3.47;1.20;;;18.40;77.30;;;;;;10416848;28;20021;-60
2022/06/20 09:51:00;;;;;;;2.85;1.27;;;18.50;76.70;;;;;;10419147;28;20530;-60
2022/06/20 09:56:41;;;;;;;2.53;1.30;;;18.50;76.90;;;;;;10425987;28;20013;-60
2022/06/20 10:01:59;;;;;;;3.15;1.48;;;18.50;76.80;;;;;;10421062;28;20392;-60
2022/06/20 10:07:23;;;;;;;4.53;1.30;;;18.70;75.10;;;;;;10422238;28;20098;-60
2022/06/20 10:13:01;;;;;;;5.32;1.40;;;18.60;74.10;;;;;;10425463;28;20634;-60
2022/06/20 10:18:05;;;;;;;;;;;18.30;75.20;;;;;;10424373;28;20520;-60
2022/06/20 10:23:39;;;;;;;3.72;1.50;;;18.20;75.10;;;;;;10419068;28;19920;-60
2022/06/20 10:28:48;;;;;;;2.80;1.45;;;18.50;73.70;;;;;;10426422;28;21133;-62
2022/06/20 10:34:19;;;;;;;3.65;1.17;;;18.50;75.20;;;;;;10423117;28;20032;-61
2022/06/20 10:39:44;;;;;;;5.40;1.40;;;18.20;73.10;;;;;;10421231;28;20056;-61
2022/06/20 10:45:16;;;;;;;3.13;1.27;;;18.20;74.30;;;;;;10421297;28;20880;-61
2022/06/20 10:50:49;;;;;;;2.22;1.70;;;18.30;73.90;;;;;;10419545;28;20158;-60
2022/06/20 10:56:03;;;;;;;4.35;1.20;;;18.40;73.20;;;;;;10423453;28;20143;-64
2022/06/20 11:01:47;;;;;;;7.13;3.08;;;18.60;74.10;;;;;;10431941;28;20964;-61
2022/06/20 11:07:11;;;;;;;3.17;1.30;;;18.60;73.10;;;;;;10398648;28;20047;-60
2022/06/20 11:12:25;;;;;;;5.75;1.50;;;18.70;72.50;;;;;;10417586;28;20590;-61
2022/06/20 11:17:46;;;;;;;5.03;2.08;;;19.10;72.80;;;;;;10420830;28;20078;-60
2022/06/20 11:22:48;;;;;;;7.50;1.88;;;19.20;73.30;;;;;;10420219;28;20438;-61
2022/06/20 11:28:00;;;;;;;3.97;1.80;;;19.00;73.60;;;;;;10425953;28;20028;-62
2022/06/20 11:33:20;;;;;;;8.07;2.28;;;19.00;74.30;;;;;;10432679;28;20046;-60
2022/06/20 11:38:44;;;;;;;5.63;1.70;;;19.10;73.50;;;;;;10416225;28;20043;-60
2022/06/20 11:44:17;;;;;;;4.10;1.63;;;19.20;73.60;;;;;;10426315;28;20024;-61
2022/06/20 11:49:54;;;;;;;5.18;1.55;;;19.40;73.20;;;;;;10393477;28;21070;-61
2022/06/20 11:55:12;;;;;;;6.25;2.67;;;19.40;73.00;;;;;;10420562;28;20032;-60
2022/06/20 12:00:32;;;;;;;4.75;2.00;;;19.50;73.40;;;;;;10423989;28;20040;-60
2022/06/20 12:05:57;;;;;;;5.15;1.60;;;19.70;72.70;;;;;;10425752;28;20130;-60
2022/06/20 12:11:33;;;;;;;5.07;1.48;;;19.90;72.20;;;;;;10415583;28;20044;-61
2022/06/20 12:16:59;;;;;;;10.07;2.22;;;20.10;71.10;;;;;;10417037;28;20526;-61
2022/06/20 12:27:20;;;;;;;3.47;1.70;;;19.70;71.90;;;;;;10424175;28;20035;-61
2022/06/20 12:32:28;;;;;;;2.78;1.45;;;19.70;72.00;;;;;;10419196;28;20206;-61
2022/06/20 12:37:39;;;;;;;2.88;1.45;;;19.90;71.60;;;;;;10422098;28;20405;-60
2022/06/20 12:42:50;;;;;;;4.32;1.88;;;20.00;71.00;;;;;;10412617;28;20127;-59
2022/06/20 12:48:29;;;;;;;6.32;1.70;;;20.00;70.90;;;;;;10420751;28;21027;-59
2022/06/20 12:53:35;;;;;;;4.93;1.73;;;20.10;69.30;;;;;;10434967;28;20568;-58
2022/06/20 12:58:45;;;;;;;3.90;1.90;;;20.10;70.40;;;;;;10421791;28;20916;-58
2022/06/20 13:04:20;;;;;;;3.53;1.80;;;20.10;70.70;;;;;;10423057;28;20070;-59
2022/06/20 13:09:48;;;;;;;4.03;1.88;;;20.40;70.50;;;;;;10415308;28;20028;-58
2022/06/20 13:15:04;;;;;;;4.38;2.03;;;20.60;69.30;;;;;;10408556;28;20041;-58
2022/06/20 13:20:08;;;;;;;3.42;1.80;;;20.50;69.90;;;;;;10408730;28;20048;-59
2022/06/20 13:25:17;;;;;;;3.38;1.80;;;20.50;70.00;;;;;;10420688;28;20070;-61
2022/06/20 13:30:41;;;;;;;4.05;1.83;;;20.50;70.00;;;;;;10430013;28;20890;-59
2022/06/20 13:35:48;;;;;;;3.83;1.88;;;20.80;69.50;;;;;;10391757;28;20044;-59
2022/06/20 13:41:25;;;;;;;3.70;1.63;;;21.00;69.00;;;;;;10419739;28;20040;-58
2022/06/20 13:46:52;;;;;;;3.50;1.73;;;21.00;68.20;;;;;;10415972;28;20104;-61
2022/06/20 13:51:56;;;;;;;5.47;2.00;;;20.90;67.40;;;;;;10429622;28;20105;-59
2022/06/20 13:57:21;;;;;;;1.65;1.25;;;20.60;69.20;;;;;;10424497;28;20052;-59
2022/06/20 14:02:43;;;;;;;3.10;1.52;;;20.80;67.80;;;;;;10423332;28;20143;-59
2022/06/20 14:07:49;;;;;;;2.67;1.50;;;20.80;68.00;;;;;;10422374;28;20024;-59
2022/06/20 14:12:53;;;;;;;2.92;1.83;;;20.80;67.90;;;;;;10424561;28;20039;-61
2022/06/20 14:17:59;;;;;;;4.00;1.67;;;20.70;68.30;;;;;;10416543;28;20749;-61
2022/06/20 14:23:02;;;;;;;1.75;1.40;;;20.80;68.80;;;;;;10411697;28;20043;-61
2022/06/20 14:28:03;;;;;;;2.22;1.40;;;20.90;68.00;;;;;;10416336;28;20135;-64
2022/06/20 14:33:18;;;;;;;4.13;1.77;;;21.10;67.60;;;;;;10413027;28;20194;-61
2022/06/20 14:38:40;;;;;;;10.90;2.13;;;21.10;67.10;;;;;;10419339;28;20040;-61
2022/06/20 14:43:44;;;;;;;3.78;1.55;;;21.00;67.60;;;;;;10415849;28;20024;-61
2022/06/20 14:49:12;;;;;;;1.95;1.05;;;21.00;66.80;;;;;;10418249;28;20605;-61
2022/06/20 14:54:26;;;;;;;4.05;1.77;;;20.70;65.70;;;;;;10420679;28;20036;-62
2022/06/20 14:59:42;;;;;;;4.97;1.48;;;20.90;67.30;;;;;;10414621;28;20779;-61
2022/06/20 15:04:48;;;;;;;3.03;1.40;;;21.30;66.30;;;;;;10420480;28;20020;-60
2022/06/20 15:09:53;;;;;;;2.92;1.60;;;21.20;65.80;;;;;;10414542;28;20024;-61
2022/06/20 15:15:25;;;;;;;2.05;1.85;;;21.00;65.70;;;;;;10416878;28;20048;-59
2022/06/20 15:20:35;;;;;;;3.53;1.20;;;21.00;65.10;;;;;;10419017;28;20307;-59
2022/06/20 15:25:45;;;;;;;4.25;1.30;;;20.90;65.10;;;;;;10418737;28;20570;-58
2022/06/20 15:31:06;;;;;;;3.63;1.45;;;21.10;65.30;;;;;;10423593;28;20024;-59
2022/06/20 15:36:29;;;;;;;4.43;1.40;;;21.00;65.80;;;;;;10428640;28;20040;-60
2022/06/20 15:41:48;;;;;;;5.03;1.25;;;21.00;66.10;;;;;;10425656;28;20052;-60
2022/06/20 15:47:03;;;;;;;3.25;1.70;;;21.00;66.80;;;;;;10431593;28;20543;-59
2022/06/20 15:52:14;;;;;;;4.35;1.70;;;20.50;67.60;;;;;;10429569;28;20488;-62
2022/06/20 15:57:38;;;;;;;8.20;1.95;;;20.50;68.30;;;;;;10426280;28;20039;-60
2022/06/20 16:02:44;;;;;;;4.82;1.55;;;20.10;69.00;;;;;;10417008;28;20036;-60
2022/06/20 16:08:17;;;;;;;2.70;1.52;;;19.70;69.70;;;;;;10420005;28;20019;-63
2022/06/20 16:13:31;;;;;;;3.22;1.98;;;19.50;69.20;;;;;;10413624;28;20055;-60
2022/06/20 16:18:44;;;;;;;4.10;1.35;;;19.30;69.20;;;;;;10415331;28;20036;-60
2022/06/20 16:24:04;;;;;;;3.90;1.20;;;19.20;69.50;;;;;;10423909;28;20764;-60
2022/06/20 16:29:18;;;;;;;7.72;1.30;;;19.30;68.90;;;;;;10417158;28;20028;-61
2022/06/20 16:34:54;;;;;;;2.75;1.27;;;19.30;67.90;;;;;;10419626;28;20444;-63
2022/06/20 16:40:04;;;;;;;4.28;1.50;;;19.20;67.70;;;;;;10420773;28;20040;-62
2022/06/20 16:45:23;;;;;;;3.33;1.40;;;19.00;68.80;;;;;;10426617;28;20442;-68
2022/06/20 16:50:38;;;;;;;3.58;1.67;;;19.10;69.30;;;;;;10409397;28;20043;-62
2022/06/20 16:55:57;;;;;;;5.60;1.95;;;19.20;70.10;;;;;;10418676;28;20052;-64
2022/06/20 17:01:08;;;;;;;4.75;1.77;;;19.00;71.70;;;;;;10423550;28;20843;-64
2022/06/20 17:06:25;;;;;;;5.40;1.58;;;18.80;71.80;;;;;;10421990;28;20484;-64
2022/06/20 17:11:44;;;;;;;6.72;2.15;;;18.80;71.90;;;;;;10418386;28;20036;-60
2022/06/20 17:17:10;;;;;;;5.72;1.98;;;18.80;72.00;;;;;;10410461;28;20044;-60
2022/06/20 17:22:28;;;;;;;3.33;1.77;;;18.70;72.10;;;;;;10415486;28;20036;-59
2022/06/20 17:27:51;;;;;;;4.88;1.85;;;18.70;72.20;;;;;;10413279;28;20035;-59
2022/06/20 17:33:03;;;;;;;6.43;2.30;;;18.80;72.20;;;;;;10418463;28;20820;-59
2022/06/20 17:38:09;;;;;;;4.07;2.17;;;18.90;72.20;;;;;;10417236;28;20033;-57
2022/06/20 17:43:26;;;;;;;3.50;1.40;;;18.80;71.80;;;;;;10411184;28;20040;-60
2022/06/20 17:48:45;;;;;;;5.75;1.83;;;18.70;72.00;;;;;;10420073;28;20026;-61
2022/06/20 17:54:04;;;;;;;7.80;1.70;;;18.60;72.10;;;;;;10415405;28;20909;-60
2022/06/20 17:59:28;;;;;;;3.13;1.80;;;18.50;72.50;;;;;;10420548;28;20088;-59
2022/06/20 18:04:34;;;;;;;5.93;1.80;;;18.30;72.70;;;;;;10374814;28;20093;-59
2022/06/20 18:09:51;;;;;;;5.95;1.67;;;18.10;73.00;;;;;;10413641;28;20983;-58
2022/06/20 18:15:17;;;;;;;5.38;1.70;;;18.10;73.50;;;;;;10418805;28;20810;-59
2022/06/20 18:20:28;;;;;;;4.32;1.90;;;18.10;73.80;;;;;;10411773;28;20040;-58
2022/06/20 18:25:35;;;;;;;4.97;2.35;;;18.00;74.20;;;;;;10414299;28;20048;-58
2022/06/20 18:30:40;;;;;;;4.93;1.95;;;18.00;74.50;;;;;;10433927;28;20081;-58
2022/06/20 18:35:42;;;;;;;4.70;2.20;;;18.00;74.70;;;;;;10425449;28;20028;-58
2022/06/20 18:40:48;;;;;;;4.57;1.55;;;18.00;74.70;;;;;;10422617;28;20024;-59
2022/06/20 18:45:50;;;;;;;4.85;1.50;;;17.90;74.70;;;;;;10422526;28;20374;-60
2022/06/20 18:51:12;;;;;;;3.80;1.27;;;17.80;74.70;;;;;;10415473;28;20039;-61
2022/06/20 18:56:25;;;;;;;3.90;1.60;;;17.70;74.70;;;;;;10412188;28;20032;-60
2022/06/20 19:01:51;;;;;;;6.20;1.48;;;17.70;74.90;;;;;;10412916;28;20459;-59
2022/06/20 19:07:39;;;;;;;3.17;1.30;;;17.50;75.30;;;;;;10415924;28;20265;-59
2022/06/20 19:13:00;;;;;;;6.30;1.48;;;17.50;75.80;;;;;;10411224;28;20040;-59
2022/06/20 19:18:13;;;;;;;5.82;1.40;;;17.50;75.50;;;;;;10369321;28;20048;-60
2022/06/20 19:23:45;;;;;;;6.63;1.80;;;17.50;75.80;;;;;;10415600;28;20032;-61
2022/06/20 19:29:04;;;;;;;5.15;1.73;;;17.40;77.10;;;;;;10426263;28;20113;-59
2022/06/20 19:34:07;;;;;;;;;;;17.40;76.80;;;;;;10422330;28;20074;-60
2022/06/20 19:39:24;;;;;;;6.20;1.77;;;17.30;78.10;;;;;;10421054;28;19954;-58
2022/06/20 19:44:36;;;;;;;5.35;1.40;;;17.30;77.50;;;;;;10426641;28;20020;-57
2022/06/20 19:49:51;;;;;;;5.90;1.30;;;17.30;77.30;;;;;;10429504;28;20101;-57
2022/06/20 19:55:06;;;;;;;3.20;1.27;;;17.20;77.80;;;;;;10416427;28;20349;-59
2022/06/20 20:00:09;;;;;;;6.18;1.35;;;17.10;77.80;;;;;;10426693;28;20110;-57
2022/06/20 20:05:13;;;;;;;6.15;1.73;;;17.10;77.90;;;;;;10425053;28;20036;-57
2022/06/20 20:10:28;;;;;;;3.25;2.13;;;17.00;78.30;;;;;;10417287;28;20119;-58
2022/06/20 20:15:53;;;;;;;2.72;1.00;;;16.90;78.50;;;;;;10412638;28;20493;-59
2022/06/20 20:21:03;;;;;;;4.32;1.20;;;16.80;78.70;;;;;;10409834;28;20047;-58
2022/06/20 20:26:32;;;;;;;8.65;1.05;;;16.70;79.10;;;;;;10425834;28;20115;-58
2022/06/20 20:31:39;;;;;;;4.60;1.15;;;16.70;79.20;;;;;;10507493;28;20126;-57
2022/06/20 20:36:51;;;;;;;4.63;1.13;;;16.70;78.90;;;;;;10507421;28;20035;-58
2022/06/20 20:41:52;;;;;;;6.47;1.30;;;16.70;78.70;;;;;;10503027;28;20123;-59
2022/06/20 20:47:20;;;;;;;5.10;1.92;;;16.70;78.80;;;;;;10502619;28;20425;-59
2022/06/20 20:52:22;;;;;;;;;;;16.60;80.00;;;;;;10512047;28;20028;-57
2022/06/20 20:57:27;;;;;;;5.47;1.83;;;16.40;80.50;;;;;;10505292;28;19946;-57
2022/06/20 21:02:32;;;;;;;2.97;1.20;;;16.30;79.60;;;;;;10507931;28;20036;-61
2022/06/20 21:07:38;;;;;;;7.80;1.40;;;16.20;79.80;;;;;;10498049;28;20024;-57
2022/06/20 21:12:44;;;;;;;4.43;1.25;;;16.10;80.20;;;;;;10508237;28;20135;-56
2022/06/20 21:17:59;;;;;;;3.10;1.00;;;16.10;80.30;;;;;;10501519;28;20044;-59
2022/06/20 21:23:03;;;;;;;3.55;1.00;;;16.20;80.70;;;;;;10503664;28;20036;-56
2022/06/20 21:28:05;;;;;;;3.08;1.02;;;16.50;80.00;;;;;;10502481;28;20450;-57
2022/06/20 21:33:10;;;;;;;3.50;1.40;;;16.70;79.30;;;;;;10512126;28;20033;-57
2022/06/20 21:38:16;;;;;;;2.10;1.00;;;16.90;79.00;;;;;;10509348;28;20024;-58
2022/06/20 21:43:20;;;;;;;5.70;1.00;;;17.10;78.60;;;;;;10510140;28;20032;-59
2022/06/20 21:48:28;;;;;;;2.58;1.00;;;17.20;78.30;;;;;;10507143;28;20042;-57
2022/06/20 21:54:11;;;;;;;2.38;0.90;;;17.30;78.10;;;;;;10493333;28;20102;-57
2022/06/20 21:59:52;;;;;;;2.75;1.08;;;17.40;78.10;;;;;;10493390;28;20056;-57
2022/06/20 22:05:10;;;;;;;1.77;1.13;;;17.50;77.80;;;;;;10502237;28;20043;-59
2022/06/20 22:10:20;;;;;;;2.15;0.95;;;17.60;78.30;;;;;;10505761;28;20032;-56
2022/06/20 22:15:33;;;;;;;2.10;1.08;;;17.60;77.50;;;;;;10508778;28;20131;-58
2022/06/20 22:20:39;;;;;;;2.33;1.30;;;17.60;77.40;;;;;;10501514;28;20032;-58
2022/06/20 22:25:46;;;;;;;3.70;1.05;;;17.70;77.40;;;;;;10509972;28;20032;-57
2022/06/20 22:30:48;;;;;;;2.20;1.10;;;17.70;77.30;;;;;;10500432;28;20124;-60
2022/06/20 22:35:52;;;;;;;1.35;0.90;;;17.70;77.20;;;;;;10516725;28;20153;-58
2022/06/20 22:40:55;;;;;;;3.60;1.13;;;17.70;77.20;;;;;;10504777;28;20393;-59
2022/06/20 22:46:06;;;;;;;1.85;0.95;;;17.70;77.20;;;;;;10503075;28;20060;-60
2022/06/20 22:51:14;;;;;;;1.52;1.00;;;17.70;77.20;;;;;;10507647;28;20093;-57
2022/06/20 22:56:20;;;;;;;2.15;0.82;;;17.70;77.20;;;;;;10501651;28;20062;-59
2022/06/20 23:01:32;;;;;;;2.20;1.00;;;17.70;77.20;;;;;;10512449;28;20044;-56
2022/06/20 23:06:33;;;;;;;1.92;1.10;;;17.70;77.10;;;;;;10508425;28;21018;-59
2022/06/20 23:11:34;;;;;;;2.75;1.55;;;17.70;77.10;;;;;;10511611;28;20029;-59
2022/06/20 23:21:54;;;;;;;2.95;1.05;;;17.70;77.70;;;;;;10514816;28;20067;-59
2022/06/20 23:26:55;;;;;;;1.80;1.20;;;17.70;77.20;;;;;;10513914;28;20032;-56
2022/06/20 23:31:58;;;;;;;1.33;0.88;;;17.70;77.20;;;;;;10516645;28;20484;-57
2022/06/20 23:37:01;;;;;;;1.73;0.90;;;17.70;77.10;;;;;;10513048;28;20028;-59
2022/06/20 23:42:03;;;;;;;2.92;1.05;;;17.70;77.20;;;;;;10511439;28;20405;-59
2022/06/20 23:47:04;;;;;;;1.83;1.00;;;17.70;77.20;;;;;;10508643;28;20031;-60
2022/06/20 23:52:08;;;;;;;4.10;0.80;;;17.70;77.20;;;;;;10506384;28;20046;-60
2022/06/20 23:57:22;;;;;;;1.90;1.00;;;17.70;77.20;;;;;;10510222;28;20033;-57
